DAWDF LFMN-EDFE
Flight info
| Callsign | DAWDF |
|---|---|
| Flight time | 1h 10m |
| Altitude | 40000 |
| Route | BASIP Y15 ANAKI DCT SRN DCT ABESI DCT LADOL T163 KOVAN T163 SUKON/N0250F090 T163 SPESA VFR |
| Aircraft | CL60/M-SBDE1E2E3FGHIJ1J4J5J7M3RWXYZ/LB1V1D1 |
Departure
| Time | 2026-04-26 09:25 |
|---|---|
| Airport | Nice-Côte d'Azur Airport (LFMN) |
Arrival
| Time | 2026-04-26 10:35 |
|---|---|
| Airport | Frankfurt-Egelsbach Airport (EDFE) |
| Time | Latitude | Longitude | Altitude | Speed | Heading |
|---|---|---|---|---|---|
| 2026-04-26 08:41 | 43.65508 | 7.20410 | 25 ft | 0 kts | 130° |
| 2026-04-26 09:21 | 43.65507 | 7.20411 | 25 ft | 1 kts | 131° |
| 2026-04-26 09:22 | 43.65491 | 7.20435 | 25 ft | 5 kts | 134° |
| 2026-04-26 09:22 | 43.65480 | 7.20450 | 25 ft | 2 kts | 136° |
| 2026-04-26 09:22 | 43.65412 | 7.20403 | 25 ft | 19 kts | 230° |
| 2026-04-26 09:22 | 43.65319 | 7.20294 | 25 ft | 15 kts | 193° |
| 2026-04-26 09:23 | 43.65224 | 7.20372 | 25 ft | 17 kts | 131° |
| 2026-04-26 09:23 | 43.65128 | 7.20498 | 25 ft | 19 kts | 138° |
| 2026-04-26 09:23 | 43.65035 | 7.20627 | 25 ft | 12 kts | 139° |
| 2026-04-26 09:23 | 43.64998 | 7.20701 | 25 ft | 9 kts | 57° |
| 2026-04-26 09:24 | 43.65021 | 7.20728 | 25 ft | 0 kts | 45° |
| 2026-04-26 09:24 | 43.65025 | 7.20733 | 25 ft | 12 kts | 44° |
| 2026-04-26 09:24 | 43.65360 | 7.21192 | 25 ft | 117 kts | 45° |
| 2026-04-26 09:25 | 43.66089 | 7.22159 | 385 ft | 164 kts | 46° |
| 2026-04-26 09:25 | 43.66702 | 7.23530 | 1147 ft | 183 kts | 78° |
| 2026-04-26 09:25 | 43.66480 | 7.25290 | 2036 ft | 201 kts | 119° |
| 2026-04-26 09:25 | 43.65608 | 7.26888 | 2838 ft | 218 kts | 132° |
| 2026-04-26 09:26 | 43.64560 | 7.28414 | 3476 ft | 223 kts | 133° |
| 2026-04-26 09:26 | 43.63557 | 7.30016 | 3969 ft | 220 kts | 120° |
| 2026-04-26 09:26 | 43.63075 | 7.32018 | 4477 ft | 221 kts | 93° |
| 2026-04-26 09:26 | 43.63323 | 7.34095 | 4989 ft | 224 kts | 70° |
| 2026-04-26 09:27 | 43.63892 | 7.36121 | 5523 ft | 233 kts | 69° |
| 2026-04-26 09:27 | 43.64475 | 7.38199 | 6672 ft | 239 kts | 69° |
| 2026-04-26 09:27 | 43.65051 | 7.40265 | 8109 ft | 233 kts | 68° |
| 2026-04-26 09:27 | 43.65618 | 7.42296 | 9360 ft | 235 kts | 68° |
| 2026-04-26 09:28 | 43.66202 | 7.44394 | 10567 ft | 238 kts | 68° |
| 2026-04-26 09:28 | 43.66785 | 7.46485 | 11673 ft | 242 kts | 69° |
| 2026-04-26 09:28 | 43.67384 | 7.48645 | 12764 ft | 245 kts | 69° |
| 2026-04-26 09:28 | 43.67998 | 7.50922 | 13216 ft | 275 kts | 70° |
| 2026-04-26 09:29 | 43.68713 | 7.53614 | 13401 ft | 313 kts | 70° |
| 2026-04-26 09:29 | 43.69487 | 7.56528 | 14103 ft | 331 kts | 69° |
| 2026-04-26 09:29 | 43.70287 | 7.59544 | 14953 ft | 341 kts | 69° |
| 2026-04-26 09:29 | 43.71097 | 7.62604 | 15865 ft | 348 kts | 69° |
| 2026-04-26 09:30 | 43.71941 | 7.65795 | 16772 ft | 354 kts | 70° |
| 2026-04-26 09:30 | 43.72786 | 7.68992 | 17613 ft | 359 kts | 70° |
| 2026-04-26 09:30 | 43.73903 | 7.72071 | 18505 ft | 363 kts | 54° |
| 2026-04-26 09:30 | 43.75542 | 7.74751 | 19285 ft | 370 kts | 48° |
| 2026-04-26 09:31 | 43.77255 | 7.77412 | 20070 ft | 375 kts | 48° |
| 2026-04-26 09:31 | 43.79002 | 7.80143 | 20882 ft | 380 kts | 48° |
| 2026-04-26 09:31 | 43.80756 | 7.82890 | 21646 ft | 385 kts | 48° |
| 2026-04-26 09:31 | 43.82541 | 7.85687 | 22374 ft | 390 kts | 47° |
| 2026-04-26 09:32 | 43.84360 | 7.88543 | 23084 ft | 396 kts | 47° |
| 2026-04-26 09:32 | 43.86171 | 7.91389 | 23767 ft | 401 kts | 47° |
| 2026-04-26 09:32 | 43.88024 | 7.94303 | 24467 ft | 405 kts | 47° |
| 2026-04-26 09:32 | 43.89894 | 7.97248 | 25143 ft | 409 kts | 47° |
| 2026-04-26 09:33 | 43.91782 | 8.00225 | 25800 ft | 413 kts | 47° |
| 2026-04-26 09:33 | 43.93680 | 8.03220 | 26453 ft | 416 kts | 47° |
| 2026-04-26 09:33 | 43.95582 | 8.06226 | 27076 ft | 418 kts | 47° |
| 2026-04-26 09:33 | 43.97513 | 8.09281 | 27654 ft | 422 kts | 47° |
| 2026-04-26 09:34 | 43.99637 | 8.12124 | 28198 ft | 422 kts | 34° |
| 2026-04-26 09:34 | 44.02228 | 8.13987 | 28680 ft | 423 kts | 20° |
| 2026-04-26 09:34 | 44.05036 | 8.15389 | 29117 ft | 427 kts | 16° |
| 2026-04-26 09:34 | 44.07883 | 8.16575 | 29593 ft | 430 kts | 15° |
| 2026-04-26 09:35 | 44.10775 | 8.17749 | 30055 ft | 433 kts | 15° |
| 2026-04-26 09:35 | 44.13664 | 8.18925 | 30493 ft | 436 kts | 15° |
| 2026-04-26 09:35 | 44.16601 | 8.20121 | 30901 ft | 439 kts | 15° |
| 2026-04-26 09:35 | 44.19542 | 8.21320 | 31303 ft | 442 kts | 15° |
| 2026-04-26 09:36 | 44.22466 | 8.22513 | 31700 ft | 444 kts | 15° |
| 2026-04-26 09:36 | 44.25474 | 8.23742 | 32076 ft | 447 kts | 14° |
| 2026-04-26 09:36 | 44.28460 | 8.24962 | 32428 ft | 449 kts | 15° |
| 2026-04-26 09:36 | 44.31430 | 8.26178 | 32744 ft | 451 kts | 14° |
| 2026-04-26 09:37 | 44.34446 | 8.27413 | 33100 ft | 451 kts | 14° |
| 2026-04-26 09:37 | 44.37469 | 8.28653 | 33518 ft | 451 kts | 14° |
| 2026-04-26 09:37 | 44.40485 | 8.29891 | 33955 ft | 449 kts | 15° |
| 2026-04-26 09:37 | 44.43461 | 8.31114 | 34383 ft | 447 kts | 15° |
| 2026-04-26 09:38 | 44.46431 | 8.32336 | 34780 ft | 446 kts | 14° |
| 2026-04-26 09:38 | 44.49416 | 8.33564 | 35099 ft | 445 kts | 14° |
| 2026-04-26 09:38 | 44.52375 | 8.34784 | 35386 ft | 445 kts | 14° |
| 2026-04-26 09:38 | 44.55353 | 8.36013 | 35656 ft | 446 kts | 14° |
| 2026-04-26 09:39 | 44.58320 | 8.37237 | 35919 ft | 446 kts | 14° |
| 2026-04-26 09:39 | 44.61328 | 8.38481 | 36178 ft | 446 kts | 14° |
| 2026-04-26 09:39 | 44.64291 | 8.39707 | 36426 ft | 446 kts | 14° |
| 2026-04-26 09:39 | 44.67273 | 8.40942 | 36671 ft | 446 kts | 14° |
| 2026-04-26 09:40 | 44.70248 | 8.42176 | 36980 ft | 445 kts | 14° |
| 2026-04-26 09:40 | 44.73196 | 8.43400 | 37289 ft | 445 kts | 14° |
| 2026-04-26 09:40 | 44.76179 | 8.44640 | 37591 ft | 445 kts | 14° |
| 2026-04-26 09:40 | 44.79112 | 8.45860 | 37869 ft | 444 kts | 14° |
| 2026-04-26 09:41 | 44.82072 | 8.47093 | 38137 ft | 444 kts | 14° |
| 2026-04-26 09:41 | 44.85036 | 8.48328 | 38393 ft | 444 kts | 14° |
| 2026-04-26 09:41 | 44.87997 | 8.49565 | 38625 ft | 444 kts | 14° |
| 2026-04-26 09:41 | 44.90953 | 8.50799 | 38830 ft | 444 kts | 14° |
| 2026-04-26 09:42 | 44.93907 | 8.52035 | 38996 ft | 444 kts | 14° |
| 2026-04-26 09:42 | 44.96871 | 8.53276 | 39156 ft | 445 kts | 14° |
| 2026-04-26 09:42 | 44.99829 | 8.54516 | 39325 ft | 445 kts | 14° |
| 2026-04-26 09:42 | 45.02810 | 8.55766 | 39483 ft | 445 kts | 14° |
| 2026-04-26 09:43 | 45.05765 | 8.57008 | 39648 ft | 445 kts | 14° |
| 2026-04-26 09:43 | 45.08730 | 8.58255 | 39814 ft | 444 kts | 14° |
| 2026-04-26 09:43 | 45.11684 | 8.59498 | 39969 ft | 444 kts | 14° |
| 2026-04-26 09:43 | 45.14658 | 8.60752 | 40103 ft | 444 kts | 14° |
| 2026-04-26 09:44 | 45.17635 | 8.62007 | 40098 ft | 447 kts | 14° |
| 2026-04-26 09:44 | 45.23650 | 8.64549 | 40102 ft | 452 kts | 14° |
| 2026-04-26 09:45 | 45.29679 | 8.67102 | 40102 ft | 456 kts | 14° |
| 2026-04-26 09:45 | 45.35794 | 8.69698 | 40112 ft | 459 kts | 14° |
| 2026-04-26 09:46 | 45.41962 | 8.72322 | 40108 ft | 463 kts | 14° |
| 2026-04-26 09:46 | 45.48138 | 8.74956 | 40108 ft | 467 kts | 14° |
| 2026-04-26 09:47 | 45.54383 | 8.77626 | 40109 ft | 468 kts | 14° |
| 2026-04-26 09:47 | 45.60630 | 8.80303 | 40110 ft | 468 kts | 14° |
| 2026-04-26 09:48 | 45.66874 | 8.82985 | 40107 ft | 468 kts | 14° |
| 2026-04-26 09:48 | 45.73087 | 8.85660 | 40105 ft | 468 kts | 14° |
| 2026-04-26 09:49 | 45.79329 | 8.88353 | 40103 ft | 468 kts | 14° |
| 2026-04-26 09:49 | 45.85555 | 8.91046 | 40100 ft | 469 kts | 14° |
| 2026-04-26 09:50 | 45.91773 | 8.93742 | 40100 ft | 469 kts | 14° |
| 2026-04-26 09:50 | 45.98010 | 8.96452 | 40097 ft | 468 kts | 14° |
| 2026-04-26 09:51 | 46.04273 | 8.99180 | 40097 ft | 467 kts | 14° |
| 2026-04-26 09:51 | 46.10457 | 9.01880 | 40108 ft | 467 kts | 14° |
| 2026-04-26 09:52 | 46.16783 | 9.03945 | 40117 ft | 464 kts | 3° |
| 2026-04-26 09:52 | 46.26442 | 9.03835 | 40147 ft | 462 kts | 355° |
| 2026-04-26 09:53 | 46.32854 | 9.03560 | 40167 ft | 462 kts | 355° |
| 2026-04-26 09:53 | 46.39320 | 9.03282 | 40201 ft | 462 kts | 355° |
| 2026-04-26 09:54 | 46.45705 | 9.03006 | 40190 ft | 461 kts | 355° |
| 2026-04-26 09:54 | 46.52122 | 9.02729 | 40197 ft | 460 kts | 355° |
| 2026-04-26 09:55 | 46.58524 | 9.02451 | 40205 ft | 460 kts | 355° |
| 2026-04-26 09:55 | 46.64951 | 9.02171 | 40220 ft | 461 kts | 355° |
| 2026-04-26 09:56 | 46.71352 | 9.01891 | 40213 ft | 461 kts | 355° |
| 2026-04-26 09:56 | 46.77808 | 9.01609 | 40219 ft | 462 kts | 355° |
| 2026-04-26 09:57 | 46.84227 | 9.01327 | 40224 ft | 462 kts | 355° |
| 2026-04-26 09:57 | 46.90656 | 9.01045 | 40211 ft | 461 kts | 355° |
| 2026-04-26 09:58 | 46.97043 | 9.00764 | 40244 ft | 460 kts | 355° |
| 2026-04-26 09:58 | 47.03439 | 9.00481 | 40249 ft | 460 kts | 355° |
| 2026-04-26 09:59 | 47.09831 | 9.00197 | 40209 ft | 461 kts | 355° |
| 2026-04-26 09:59 | 47.16283 | 8.99911 | 40231 ft | 461 kts | 355° |
| 2026-04-26 10:00 | 47.22695 | 8.99625 | 40231 ft | 463 kts | 355° |
| 2026-04-26 10:00 | 47.29103 | 8.99340 | 40222 ft | 463 kts | 355° |
| 2026-04-26 10:01 | 47.35548 | 8.99052 | 40218 ft | 462 kts | 355° |
| 2026-04-26 10:01 | 47.41958 | 8.98764 | 40216 ft | 462 kts | 355° |
| 2026-04-26 10:02 | 47.48398 | 8.98475 | 40211 ft | 462 kts | 355° |
| 2026-04-26 10:02 | 47.54802 | 8.98186 | 40209 ft | 462 kts | 355° |
| 2026-04-26 10:03 | 47.61250 | 8.97894 | 40209 ft | 462 kts | 355° |
| 2026-04-26 10:03 | 47.67677 | 8.97603 | 40205 ft | 463 kts | 355° |
| 2026-04-26 10:04 | 47.74138 | 8.97309 | 40200 ft | 464 kts | 355° |
| 2026-04-26 10:04 | 47.80590 | 8.97015 | 40201 ft | 464 kts | 355° |
| 2026-04-26 10:05 | 47.87030 | 8.96721 | 40204 ft | 464 kts | 355° |
| 2026-04-26 10:05 | 47.93478 | 8.96425 | 39672 ft | 465 kts | 355° |
| 2026-04-26 10:06 | 47.96720 | 8.96277 | 39089 ft | 460 kts | 355° |
| 2026-04-26 10:06 | 47.99886 | 8.96133 | 38487 ft | 455 kts | 355° |
| 2026-04-26 10:06 | 48.03021 | 8.95989 | 37875 ft | 450 kts | 355° |
| 2026-04-26 10:06 | 48.06149 | 8.95846 | 37277 ft | 445 kts | 355° |
| 2026-04-26 10:07 | 48.09193 | 8.95706 | 36743 ft | 440 kts | 355° |
| 2026-04-26 10:07 | 48.12260 | 8.95565 | 36217 ft | 442 kts | 355° |
| 2026-04-26 10:07 | 48.15352 | 8.95422 | 35612 ft | 445 kts | 356° |
| 2026-04-26 10:07 | 48.18477 | 8.95564 | 35021 ft | 448 kts | 2° |
| 2026-04-26 10:08 | 48.21581 | 8.96039 | 34373 ft | 449 kts | 3° |
| 2026-04-26 10:08 | 48.24654 | 8.96514 | 33827 ft | 451 kts | 3° |
| 2026-04-26 10:08 | 48.27793 | 8.96996 | 33231 ft | 452 kts | 3° |
| 2026-04-26 10:08 | 48.30944 | 8.97480 | 32620 ft | 455 kts | 3° |
| 2026-04-26 10:09 | 48.34075 | 8.97960 | 32031 ft | 456 kts | 3° |
| 2026-04-26 10:09 | 48.37236 | 8.98445 | 31428 ft | 458 kts | 3° |
| 2026-04-26 10:09 | 48.40417 | 8.98933 | 30827 ft | 460 kts | 3° |
| 2026-04-26 10:09 | 48.43599 | 8.99421 | 30206 ft | 461 kts | 3° |
| 2026-04-26 10:10 | 48.46802 | 8.99913 | 29606 ft | 463 kts | 3° |
| 2026-04-26 10:10 | 48.50010 | 9.00405 | 28988 ft | 463 kts | 3° |
| 2026-04-26 10:10 | 48.53177 | 9.00892 | 28385 ft | 459 kts | 3° |
| 2026-04-26 10:10 | 48.56358 | 9.01381 | 27769 ft | 454 kts | 3° |
| 2026-04-26 10:11 | 48.59472 | 9.01860 | 27180 ft | 449 kts | 3° |
| 2026-04-26 10:11 | 48.62533 | 9.02349 | 26592 ft | 445 kts | 5° |
| 2026-04-26 10:11 | 48.65614 | 9.03034 | 25996 ft | 442 kts | 7° |
| 2026-04-26 10:11 | 48.68620 | 9.03755 | 25414 ft | 438 kts | 7° |
| 2026-04-26 10:12 | 48.71642 | 9.04477 | 24828 ft | 434 kts | 7° |
| 2026-04-26 10:12 | 48.74618 | 9.05189 | 24252 ft | 430 kts | 7° |
| 2026-04-26 10:12 | 48.77562 | 9.05893 | 23696 ft | 426 kts | 7° |
| 2026-04-26 10:12 | 48.80450 | 9.06585 | 23140 ft | 423 kts | 7° |
| 2026-04-26 10:13 | 48.83358 | 9.07282 | 22571 ft | 419 kts | 7° |
| 2026-04-26 10:13 | 48.86224 | 9.07970 | 22020 ft | 415 kts | 7° |
| 2026-04-26 10:13 | 48.89069 | 9.08556 | 21479 ft | 411 kts | 4° |
| 2026-04-26 10:13 | 48.91886 | 9.08963 | 20935 ft | 407 kts | 4° |
| 2026-04-26 10:14 | 48.94683 | 9.09362 | 20405 ft | 403 kts | 4° |
| 2026-04-26 10:14 | 48.97485 | 9.09763 | 19867 ft | 400 kts | 4° |
| 2026-04-26 10:14 | 49.00207 | 9.10153 | 19348 ft | 397 kts | 4° |
| 2026-04-26 10:14 | 49.02951 | 9.10546 | 18821 ft | 393 kts | 4° |
| 2026-04-26 10:15 | 49.05658 | 9.10934 | 18303 ft | 390 kts | 4° |
| 2026-04-26 10:15 | 49.08375 | 9.11324 | 17784 ft | 387 kts | 4° |
| 2026-04-26 10:15 | 49.11047 | 9.11708 | 17273 ft | 384 kts | 4° |
| 2026-04-26 10:15 | 49.13728 | 9.12093 | 16751 ft | 379 kts | 4° |
| 2026-04-26 10:16 | 49.16338 | 9.12469 | 16262 ft | 376 kts | 4° |
| 2026-04-26 10:16 | 49.18930 | 9.12842 | 15761 ft | 372 kts | 4° |
| 2026-04-26 10:16 | 49.21495 | 9.13208 | 15265 ft | 368 kts | 4° |
| 2026-04-26 10:16 | 49.24021 | 9.13567 | 14783 ft | 365 kts | 4° |
| 2026-04-26 10:17 | 49.26532 | 9.13925 | 14304 ft | 360 kts | 4° |
| 2026-04-26 10:17 | 49.28987 | 9.14274 | 13831 ft | 353 kts | 4° |
| 2026-04-26 10:17 | 49.31427 | 9.14622 | 13363 ft | 344 kts | 4° |
| 2026-04-26 10:17 | 49.33764 | 9.14956 | 12910 ft | 336 kts | 4° |
| 2026-04-26 10:18 | 49.36053 | 9.15282 | 12476 ft | 328 kts | 4° |
| 2026-04-26 10:18 | 49.38315 | 9.15606 | 12038 ft | 321 kts | 4° |
| 2026-04-26 10:18 | 49.40517 | 9.15921 | 11615 ft | 315 kts | 4° |
| 2026-04-26 10:18 | 49.42659 | 9.16227 | 11200 ft | 309 kts | 4° |
| 2026-04-26 10:19 | 49.44790 | 9.16532 | 10790 ft | 303 kts | 4° |
| 2026-04-26 10:19 | 49.46856 | 9.16828 | 10391 ft | 298 kts | 4° |
| 2026-04-26 10:19 | 49.48920 | 9.17124 | 9993 ft | 293 kts | 4° |
| 2026-04-26 10:19 | 49.50938 | 9.17413 | 9560 ft | 290 kts | 4° |
| 2026-04-26 10:20 | 49.52927 | 9.17699 | 9013 ft | 290 kts | 4° |
| 2026-04-26 10:20 | 49.54260 | 9.17890 | 8742 ft | 287 kts | 4° |
| 2026-04-26 10:20 | 49.56897 | 9.18269 | 8204 ft | 280 kts | 4° |
| 2026-04-26 10:20 | 49.58814 | 9.18545 | 7832 ft | 275 kts | 4° |
| 2026-04-26 10:21 | 49.60692 | 9.18815 | 7470 ft | 270 kts | 5° |
| 2026-04-26 10:21 | 49.62546 | 9.19083 | 7114 ft | 265 kts | 5° |
| 2026-04-26 10:21 | 49.64367 | 9.19345 | 6764 ft | 261 kts | 5° |
| 2026-04-26 10:21 | 49.66183 | 9.19604 | 6422 ft | 257 kts | 5° |
| 2026-04-26 10:22 | 49.67934 | 9.19764 | 6127 ft | 250 kts | 354° |
| 2026-04-26 10:22 | 49.69510 | 9.18835 | 5958 ft | 239 kts | 321° |
| 2026-04-26 10:22 | 49.70457 | 9.16837 | 5869 ft | 227 kts | 298° |
| 2026-04-26 10:22 | 49.71127 | 9.14684 | 5752 ft | 226 kts | 297° |
| 2026-04-26 10:23 | 49.71867 | 9.12289 | 5576 ft | 270 kts | 297° |
| 2026-04-26 10:23 | 49.72746 | 9.09444 | 5285 ft | 313 kts | 297° |
| 2026-04-26 10:23 | 49.73659 | 9.06466 | 5031 ft | 299 kts | 296° |
| 2026-04-26 10:23 | 49.74519 | 9.03621 | 4775 ft | 283 kts | 296° |
| 2026-04-26 10:24 | 49.75341 | 9.00840 | 4554 ft | 291 kts | 296° |
| 2026-04-26 10:24 | 49.76185 | 8.97955 | 4477 ft | 285 kts | 296° |
| 2026-04-26 10:24 | 49.76949 | 8.95315 | 4507 ft | 254 kts | 296° |
| 2026-04-26 10:24 | 49.77640 | 8.92922 | 4371 ft | 236 kts | 296° |
| 2026-04-26 10:25 | 49.78308 | 8.90616 | 3904 ft | 234 kts | 296° |
| 2026-04-26 10:25 | 49.78972 | 8.88324 | 3398 ft | 235 kts | 296° |
| 2026-04-26 10:25 | 49.79633 | 8.86033 | 2899 ft | 235 kts | 296° |
| 2026-04-26 10:25 | 49.80297 | 8.83723 | 2396 ft | 235 kts | 296° |
| 2026-04-26 10:26 | 49.80960 | 8.81416 | 1957 ft | 233 kts | 296° |
| 2026-04-26 10:26 | 49.81611 | 8.79140 | 1737 ft | 226 kts | 296° |
| 2026-04-26 10:26 | 49.82238 | 8.76946 | 1499 ft | 221 kts | 296° |
| 2026-04-26 10:26 | 49.82847 | 8.74810 | 1387 ft | 210 kts | 296° |
| 2026-04-26 10:27 | 49.83410 | 8.72824 | 1410 ft | 191 kts | 296° |
| 2026-04-26 10:27 | 49.83904 | 8.71079 | 1417 ft | 166 kts | 296° |
| 2026-04-26 10:27 | 49.84387 | 8.69382 | 1390 ft | 176 kts | 296° |
| 2026-04-26 10:27 | 49.84869 | 8.67680 | 1382 ft | 166 kts | 296° |
| 2026-04-26 10:28 | 49.85320 | 8.66076 | 1368 ft | 156 kts | 296° |
| 2026-04-26 10:28 | 49.85749 | 8.64547 | 1373 ft | 153 kts | 296° |
| 2026-04-26 10:28 | 49.86172 | 8.63042 | 1382 ft | 151 kts | 296° |
| 2026-04-26 10:28 | 49.86769 | 8.61764 | 1309 ft | 149 kts | 334° |
| 2026-04-26 10:29 | 49.87743 | 8.61385 | 1347 ft | 142 kts | 348° |
| 2026-04-26 10:29 | 49.88683 | 8.61008 | 1270 ft | 137 kts | 349° |
| 2026-04-26 10:29 | 49.89641 | 8.60843 | 1342 ft | 141 kts | 3° |
| 2026-04-26 10:29 | 49.90658 | 8.61021 | 1352 ft | 147 kts | 6° |
| 2026-04-26 10:30 | 49.91642 | 8.61214 | 1251 ft | 139 kts | 11° |
| 2026-04-26 10:30 | 49.92596 | 8.61420 | 1196 ft | 139 kts | 4° |
| 2026-04-26 10:30 | 49.93581 | 8.61370 | 1210 ft | 145 kts | 357° |
| 2026-04-26 10:30 | 49.94569 | 8.61193 | 1148 ft | 136 kts | 356° |
| 2026-04-26 10:31 | 49.95460 | 8.61158 | 849 ft | 124 kts | 17° |
| 2026-04-26 10:31 | 49.96021 | 8.61988 | 642 ft | 116 kts | 76° |
| 2026-04-26 10:31 | 49.96043 | 8.63328 | 409 ft | 133 kts | 83° |
| 2026-04-26 10:31 | 49.96107 | 8.64644 | 449 ft | 123 kts | 83° |
| 2026-04-26 10:32 | 49.96180 | 8.66209 | 864 ft | 167 kts | 85° |
| 2026-04-26 10:32 | 49.96241 | 8.68093 | 1222 ft | 184 kts | 92° |
| 2026-04-26 10:32 | 49.95672 | 8.69878 | 1418 ft | 187 kts | 136° |
| 2026-04-26 10:32 | 49.94480 | 8.70365 | 1380 ft | 178 kts | 191° |
| 2026-04-26 10:33 | 49.93512 | 8.69324 | 1281 ft | 166 kts | 240° |
| 2026-04-26 10:33 | 49.93248 | 8.67633 | 1176 ft | 160 kts | 275° |
| 2026-04-26 10:33 | 49.93309 | 8.65920 | 1287 ft | 154 kts | 273° |
| 2026-04-26 10:33 | 49.93337 | 8.64281 | 1309 ft | 153 kts | 274° |
| 2026-04-26 10:34 | 49.93404 | 8.62627 | 1291 ft | 148 kts | 289° |
| 2026-04-26 10:34 | 49.93996 | 8.61473 | 1085 ft | 137 kts | 332° |
| 2026-04-26 10:34 | 49.94855 | 8.61032 | 926 ft | 128 kts | 348° |
| 2026-04-26 10:34 | 49.95736 | 8.61032 | 734 ft | 126 kts | 26° |
| 2026-04-26 10:35 | 49.96159 | 8.62121 | 619 ft | 122 kts | 94° |
| 2026-04-26 10:35 | 49.96046 | 8.63426 | 392 ft | 122 kts | 82° |
| 2026-04-26 10:35 | 49.96100 | 8.64529 | 386 ft | 61 kts | 85° |
| 2026-04-26 10:35 | 49.96113 | 8.64877 | 389 ft | 16 kts | 86° |
| 2026-04-26 10:36 | 49.96167 | 8.64895 | 388 ft | 13 kts | 304° |
| 2026-04-26 10:36 | 49.96195 | 8.64771 | 387 ft | 7 kts | 264° |
| 2026-04-26 10:36 | 49.96185 | 8.64602 | 385 ft | 14 kts | 266° |
| 2026-04-26 10:36 | 49.96179 | 8.64469 | 385 ft | 9 kts | 265° |
| 2026-04-26 10:37 | 49.96173 | 8.64347 | 382 ft | 6 kts | 265° |
| 2026-04-26 10:37 | 49.96181 | 8.64260 | 382 ft | 8 kts | 327° |
| 2026-04-26 10:37 | 49.96230 | 8.64248 | 383 ft | 4 kts | 326° |
| 2026-04-26 10:37 | 49.96234 | 8.64228 | 383 ft | 0 kts | 261° |